createdAt,value
2019-04-04T00:00:01.419Z,0
2019-04-04T00:01:01.414Z,0
2019-04-04T00:02:01.415Z,0
2019-04-04T00:03:01.373Z,0
2019-04-04T00:04:01.378Z,0
2019-04-04T00:05:02.644Z,0
2019-04-04T00:06:03.626Z,0
2019-04-04T00:07:03.378Z,0
2019-04-04T00:08:04.559Z,0
2019-04-04T00:09:04.179Z,0
2019-04-04T00:10:02.055Z,0
2019-04-04T00:11:01.286Z,0
2019-04-04T00:12:01.305Z,0
2019-04-04T00:13:01.282Z,0
2019-04-04T00:14:01.307Z,0
2019-04-04T00:15:01.256Z,0
2019-04-04T00:16:01.272Z,0
2019-04-04T00:17:01.295Z,0
2019-04-04T00:18:01.527Z,0
2019-04-04T00:19:03.471Z,0
2019-04-04T00:20:03.218Z,0
2019-04-04T00:21:02.678Z,0
2019-04-04T00:22:02.926Z,0
2019-04-04T00:23:01.192Z,0
2019-04-04T00:24:01.216Z,0
2019-04-04T00:25:01.180Z,0
2019-04-04T00:26:01.196Z,0
2019-04-04T00:27:01.142Z,0
2019-04-04T00:28:01.166Z,0
2019-04-04T00:29:03.791Z,0
2019-04-04T00:30:00.918Z,0
2019-04-04T00:31:01.156Z,0
2019-04-04T00:32:01.119Z,0
2019-04-04T00:33:01.102Z,0
2019-04-04T00:34:03.483Z,0
2019-04-04T00:35:04.280Z,0
2019-04-04T00:36:02.621Z,0
2019-04-04T00:37:01.105Z,0
2019-04-04T00:38:01.046Z,0
2019-04-04T00:39:01.082Z,0
2019-04-04T00:40:01.044Z,0
2019-04-04T00:41:00.808Z,0
2019-04-04T00:42:01.058Z,0
2019-04-04T00:43:00.999Z,0
2019-04-04T00:44:01.036Z,0
2019-04-04T00:45:03.356Z,0
2019-04-04T00:46:03.108Z,0
2019-04-04T00:47:03.987Z,0
2019-04-04T00:48:02.923Z,0
2019-04-04T00:49:00.960Z,0
2019-04-04T00:50:00.943Z,0
2019-04-04T00:51:00.988Z,0
2019-04-04T00:52:00.938Z,0
2019-04-04T00:53:00.961Z,0
2019-04-04T00:54:00.902Z,0
2019-04-04T00:55:00.927Z,0
2019-04-04T00:56:00.889Z,0
2019-04-04T00:57:00.902Z,0
2019-04-04T00:58:00.866Z,0
2019-04-04T00:59:00.896Z,0
2019-04-04T01:00:01.138Z,0
2019-04-04T01:01:02.536Z,0
2019-04-04T01:02:03.951Z,0
2019-04-04T01:03:03.284Z,0
2019-04-04T01:04:02.947Z,0
2019-04-04T01:05:03.771Z,0
2019-04-04T01:06:02.652Z,0
2019-04-04T01:07:00.821Z,0
2019-04-04T01:08:00.794Z,0
2019-04-04T01:09:00.810Z,0
2019-04-04T01:10:00.802Z,0
2019-04-04T01:11:00.785Z,0
2019-04-04T01:12:00.768Z,0
2019-04-04T01:13:00.763Z,0
2019-04-04T01:14:02.522Z,0
2019-04-04T01:15:02.625Z,0
2019-04-04T01:16:02.441Z,0
2019-04-04T01:17:02.019Z,0
2019-04-04T01:18:00.676Z,0
2019-04-04T01:19:00.710Z,0
2019-04-04T01:20:00.677Z,0
2019-04-04T01:21:00.661Z,0
2019-04-04T01:22:01.049Z,0
2019-04-04T01:23:03.014Z,0
2019-04-04T01:24:03.000Z,0
2019-04-04T01:25:03.162Z,0
2019-04-04T01:26:01.275Z,0
2019-04-04T01:27:00.388Z,0
2019-04-04T01:28:00.598Z,0
2019-04-04T01:29:00.607Z,0
2019-04-04T01:30:00.563Z,0
2019-04-04T01:31:00.594Z,0
2019-04-04T01:32:00.561Z,0
2019-04-04T01:33:00.307Z,0
2019-04-04T01:34:00.577Z,0
2019-04-04T01:35:00.580Z,0
2019-04-04T01:36:01.641Z,0
2019-04-04T01:37:03.413Z,0
2019-04-04T01:38:02.697Z,0
2019-04-04T01:39:03.133Z,0
2019-04-04T01:40:02.836Z,0
2019-04-04T01:41:04.297Z,0
2019-04-04T01:42:00.450Z,0
2019-04-04T01:43:00.483Z,0
2019-04-04T01:44:15.785Z,0
2019-04-04T01:45:00.451Z,0
2019-04-04T01:46:00.432Z,0
2019-04-04T01:47:00.445Z,0
2019-04-04T01:48:00.417Z,0
2019-04-04T01:49:00.417Z,0
2019-04-04T01:50:00.127Z,0
2019-04-04T01:51:01.286Z,0
2019-04-04T01:52:04.015Z,0
2019-04-04T01:53:03.830Z,0
2019-04-04T01:54:03.218Z,0
2019-04-04T01:55:02.943Z,0
2019-04-04T01:56:00.338Z,0
2019-04-04T01:57:00.340Z,0
2019-04-04T01:58:00.298Z,0
2019-04-04T01:59:00.325Z,0
2019-04-04T02:00:00.271Z,0
2019-04-04T02:01:00.294Z,0
2019-04-04T02:02:00.253Z,0
2019-04-04T02:03:00.062Z,0
2019-04-04T02:04:00.793Z,0
2019-04-04T02:05:02.855Z,0
2019-04-04T02:06:02.737Z,0
2019-04-04T02:07:03.754Z,0
2019-04-04T02:08:03.008Z,0
2019-04-04T02:09:02.444Z,0
2019-04-04T02:10:00.222Z,0
2019-04-04T02:11:00.168Z,0
2019-04-04T02:12:00.196Z,0
2019-04-04T02:13:00.145Z,0
2019-04-04T02:14:00.228Z,0
2019-04-04T02:15:00.193Z,0
2019-04-04T02:16:00.161Z,0
2019-04-04T02:17:00.128Z,0
2019-04-04T02:18:00.635Z,0
2019-04-04T02:19:01.391Z,0
2019-04-04T02:20:02.850Z,0
2019-04-04T02:21:02.498Z,0
2019-04-04T02:22:02.016Z,0
2019-04-04T02:23:01.367Z,0
2019-04-04T02:24:01.461Z,0
2019-04-04T02:25:02.675Z,0
2019-04-04T02:26:00.099Z,0
2019-04-04T02:27:00.008Z,0
2019-04-04T02:28:00.020Z,0
2019-04-04T02:28:59.983Z,0
2019-04-04T02:30:00.028Z,0
2019-04-04T02:30:59.982Z,0
2019-04-04T02:32:01.513Z,0
2019-04-04T02:33:04.335Z,0
2019-04-04T02:34:00.006Z,0
2019-04-04T02:34:59.930Z,0
2019-04-04T02:35:59.939Z,0
2019-04-04T02:36:59.930Z,0
2019-04-04T02:38:02.509Z,0
2019-04-04T02:39:04.235Z,0
2019-04-04T02:39:59.908Z,0
2019-04-04T02:40:59.943Z,0
2019-04-04T02:41:59.865Z,0
2019-04-04T02:43:02.498Z,0
2019-04-04T02:44:02.012Z,0
2019-04-04T02:44:59.903Z,0
2019-04-04T02:45:59.820Z,0
2019-04-04T02:46:59.856Z,0
2019-04-04T02:47:59.850Z,0
2019-04-04T02:49:03.120Z,0
2019-04-04T02:50:03.179Z,0
2019-04-04T02:50:59.793Z,0
2019-04-04T02:51:59.781Z,0
2019-04-04T02:52:59.759Z,0
2019-04-04T02:54:00.322Z,0
2019-04-04T02:55:04.533Z,0
2019-04-04T02:56:04.687Z,0
2019-04-04T02:56:59.721Z,0
2019-04-04T02:57:59.703Z,0
2019-04-04T02:58:59.748Z,0
2019-04-04T03:00:01.230Z,0
2019-04-04T03:01:04.221Z,0
2019-04-04T03:01:59.696Z,0
2019-04-04T03:02:59.649Z,0
2019-04-04T03:03:59.708Z,0
2019-04-04T03:04:59.639Z,0
2019-04-04T03:05:59.688Z,0
2019-04-04T03:07:04.597Z,0
2019-04-04T03:08:02.896Z,0
2019-04-04T03:08:59.661Z,0
2019-04-04T03:09:59.641Z,0
2019-04-04T03:10:59.611Z,0
2019-04-04T03:12:01.745Z,0
2019-04-04T03:13:03.119Z,0
2019-04-04T03:14:03.099Z,0
2019-04-04T03:14:59.548Z,0
2019-04-04T03:15:59.549Z,0
2019-04-04T03:17:03.786Z,0
2019-04-04T03:18:03.818Z,0
2019-04-04T03:18:59.491Z,0
2019-04-04T03:19:59.278Z,0
2019-04-04T03:20:59.483Z,0
2019-04-04T03:22:02.282Z,0
2019-04-04T03:23:02.831Z,0
2019-04-04T03:23:59.504Z,0
2019-04-04T03:24:59.183Z,0
2019-04-04T03:25:59.513Z,0
2019-04-04T03:27:00.602Z,0
2019-04-04T03:28:02.746Z,0
2019-04-04T03:29:04.080Z,0
2019-04-04T03:29:59.390Z,0
2019-04-04T03:31:09.184Z,0
2019-04-04T03:31:59.427Z,0
2019-04-04T03:33:01.910Z,0
2019-04-04T03:34:03.655Z,0
2019-04-04T03:34:59.366Z,0
2019-04-04T03:36:02.464Z,0
2019-04-04T03:36:59.314Z,0
2019-04-04T03:37:59.285Z,0
2019-04-04T03:38:59.305Z,0
2019-04-04T03:40:00.615Z,0
2019-04-04T03:41:02.337Z,0
2019-04-04T03:41:59.350Z,0
2019-04-04T03:42:59.268Z,0
2019-04-04T03:43:59.262Z,0
2019-04-04T03:45:01.281Z,0
2019-04-04T03:46:02.773Z,0
2019-04-04T03:46:59.221Z,0
2019-04-04T03:47:59.177Z,0
2019-04-04T03:48:59.194Z,0
2019-04-04T03:50:03.758Z,0
2019-04-04T03:51:06.164Z,0
2019-04-04T03:51:59.121Z,0
2019-04-04T03:52:59.175Z,0
2019-04-04T03:53:59.102Z,0
2019-04-04T03:55:02.557Z,0
2019-04-04T03:56:02.731Z,0
2019-04-04T03:56:59.089Z,0
2019-04-04T03:58:02.289Z,4
2019-04-04T03:59:02.331Z,4
2019-04-04T03:59:59.063Z,0
2019-04-04T04:00:59.055Z,4
2019-04-04T04:01:59.052Z,4
2019-04-04T04:02:59.113Z,4
2019-04-04T04:04:01.975Z,20
2019-04-04T04:05:03.183Z,32
2019-04-04T04:05:58.975Z,40
2019-04-04T04:06:58.991Z,44
2019-04-04T04:07:58.709Z,48
2019-04-04T04:09:02.034Z,44
2019-04-04T04:10:02.694Z,48
2019-04-04T04:10:58.971Z,52
2019-04-04T04:11:58.924Z,52
2019-04-04T04:12:58.923Z,56
2019-04-04T04:13:58.913Z,64
2019-04-04T04:15:02.118Z,64
2019-04-04T04:16:02.396Z,68
2019-04-04T04:16:58.873Z,72
2019-04-04T04:17:58.884Z,80
2019-04-04T04:19:02.312Z,52
2019-04-04T04:20:03.149Z,56
2019-04-04T04:20:58.800Z,64
2019-04-04T04:21:58.840Z,76
2019-04-04T04:22:58.830Z,88
2019-04-04T04:24:03.648Z,104
2019-04-04T04:25:02.018Z,116
2019-04-04T04:25:58.789Z,136
2019-04-04T04:26:58.733Z,152
2019-04-04T04:28:02.753Z,172
2019-04-04T04:29:00.496Z,192
2019-04-04T04:29:59.727Z,212
2019-04-04T04:30:58.703Z,236
2019-04-04T04:31:58.709Z,260
2019-04-04T04:33:03.176Z,292
2019-04-04T04:34:03.221Z,324
2019-04-04T04:34:58.691Z,352
2019-04-04T04:35:58.658Z,388
2019-04-04T04:36:58.617Z,420
2019-04-04T04:38:00.760Z,460
2019-04-04T04:39:03.767Z,500
2019-04-04T04:39:58.651Z,536
2019-04-04T04:40:58.591Z,580
2019-04-04T04:42:01.468Z,628
2019-04-04T04:43:02.345Z,676
2019-04-04T04:43:58.558Z,724
2019-04-04T04:44:58.550Z,776
2019-04-04T04:45:58.575Z,832
2019-04-04T04:46:58.565Z,892
2019-04-04T04:48:03.306Z,960
2019-04-04T04:49:00.554Z,1016
2019-04-04T04:50:00.321Z,1088
2019-04-04T04:50:58.533Z,1152
2019-04-04T04:51:58.501Z,1220
2019-04-04T04:52:58.507Z,1296
2019-04-04T04:53:58.512Z,1376
2019-04-04T04:55:01.481Z,1464
2019-04-04T04:56:02.028Z,1560
2019-04-04T04:56:58.416Z,1656
2019-04-04T04:58:00.900Z,1756
2019-04-04T04:59:00.437Z,1860
2019-04-04T04:59:58.375Z,1956
2019-04-04T05:00:58.525Z,2064
2019-04-04T05:01:58.520Z,2172
2019-04-04T05:03:00.854Z,2280
2019-04-04T05:04:02.495Z,2396
2019-04-04T05:05:01.528Z,2524
2019-04-04T05:05:58.296Z,2660
2019-04-04T05:06:58.334Z,2784
2019-04-04T05:07:59.833Z,2920
2019-04-04T05:08:58.311Z,3056
2019-04-04T05:09:58.250Z,3180
2019-04-04T05:10:58.281Z,3312
2019-04-04T05:11:58.255Z,3444
2019-04-04T05:13:00.473Z,3584
2019-04-04T05:14:00.367Z,3760
2019-04-04T05:14:59.183Z,3960
2019-04-04T05:15:58.221Z,4112
2019-04-04T05:16:58.212Z,4240
2019-04-04T05:17:58.180Z,4400
2019-04-04T05:18:58.172Z,4544
2019-04-04T05:19:58.191Z,4708
2019-04-04T05:21:01.806Z,4840
2019-04-04T05:21:58.149Z,5016
2019-04-04T05:22:58.190Z,5112
2019-04-04T05:23:58.155Z,5264
2019-04-04T05:25:14.619Z,5452
2019-04-04T05:26:04.989Z,5532
2019-04-04T05:26:58.173Z,5648
2019-04-04T05:27:58.121Z,5936
2019-04-04T05:28:59.578Z,6088
2019-04-04T05:29:58.076Z,6308
2019-04-04T05:30:58.125Z,6612
2019-04-04T05:31:58.101Z,6836
2019-04-04T05:33:01.711Z,7132
2019-04-04T05:34:01.298Z,7188
2019-04-04T05:35:00.861Z,7552
2019-04-04T05:35:58.071Z,7756
2019-04-04T05:36:58.099Z,7680
2019-04-04T05:37:58.062Z,7984
2019-04-04T05:38:58.030Z,8392
2019-04-04T05:40:00.205Z,8264
2019-04-04T05:41:00.691Z,8472
2019-04-04T05:42:00.269Z,8496
2019-04-04T05:42:58.087Z,8584
2019-04-04T05:43:58.054Z,8820
2019-04-04T05:44:58.033Z,9060
2019-04-04T05:45:58.011Z,9320
2019-04-04T05:46:59.153Z,9616
2019-04-04T05:48:02.270Z,9784
2019-04-04T05:49:00.008Z,9996
2019-04-04T05:49:57.983Z,10264
2019-04-04T05:50:57.951Z,10796
2019-04-04T05:51:57.992Z,11180
2019-04-04T05:52:57.950Z,10904
2019-04-04T05:53:57.957Z,10884
2019-04-04T05:54:57.919Z,11312
2019-04-04T05:55:58.008Z,11972
2019-04-04T05:56:57.893Z,12140
2019-04-04T05:57:58.708Z,11500
2019-04-04T05:59:00.010Z,11752
2019-04-04T06:00:00.848Z,12512
2019-04-04T06:01:01.853Z,12852
2019-04-04T06:01:57.952Z,13048
2019-04-04T06:02:57.919Z,13080
2019-04-04T06:03:57.959Z,13316
2019-04-04T06:05:02.205Z,14268
2019-04-04T06:06:00.917Z,14656
2019-04-04T06:07:03.867Z,13888
2019-04-04T06:07:57.645Z,14944
2019-04-04T06:08:58.111Z,16480
2019-04-04T06:09:57.860Z,16352
2019-04-04T06:10:58.035Z,16256
2019-04-04T06:12:00.052Z,17152
2019-04-04T06:13:00.805Z,17632
2019-04-04T06:14:01.262Z,17696
2019-04-04T06:15:00.285Z,17888
2019-04-04T06:15:57.877Z,17824
2019-04-04T06:16:57.834Z,17856
2019-04-04T06:17:57.868Z,18400
2019-04-04T06:18:57.829Z,18208
2019-04-04T06:19:57.838Z,17536
2019-04-04T06:20:57.826Z,18624
2019-04-04T06:21:57.858Z,19968
2019-04-04T06:22:59.201Z,19552
2019-04-04T06:24:00.582Z,18624
2019-04-04T06:25:01.709Z,19840
2019-04-04T06:25:57.861Z,21216
2019-04-04T06:26:57.807Z,20448
2019-04-04T06:27:57.823Z,18656
2019-04-04T06:28:57.798Z,18496
2019-04-04T06:29:57.845Z,19456
2019-04-04T06:31:03.228Z,19424
2019-04-04T06:31:59.847Z,18912
2019-04-04T06:32:57.808Z,19008
2019-04-04T06:33:57.594Z,19744
2019-04-04T06:34:59.197Z,20384
2019-04-04T06:35:57.808Z,20352
2019-04-04T06:36:57.808Z,20288
2019-04-04T06:37:58.855Z,20576
2019-04-04T06:39:00.894Z,20576
2019-04-04T06:40:01.793Z,19936
2019-04-04T06:40:58.823Z,19680
2019-04-04T06:41:57.847Z,20416
2019-04-04T06:42:57.915Z,21248
2019-04-04T06:43:57.874Z,21312
2019-04-04T06:44:59.140Z,21376
2019-04-04T06:45:57.845Z,21760
2019-04-04T06:47:01.963Z,22912
2019-04-04T06:48:00.509Z,23040
2019-04-04T06:48:57.814Z,22688
2019-04-04T06:49:57.851Z,22944
2019-04-04T06:50:57.806Z,23776
2019-04-04T06:51:57.820Z,24256
2019-04-04T06:53:01.229Z,24352
2019-04-04T06:54:02.071Z,24128
2019-04-04T06:55:00.277Z,23168
2019-04-04T06:55:58.114Z,22656
2019-04-04T06:56:59.121Z,23776
2019-04-04T06:57:58.554Z,25792
2019-04-04T06:58:57.872Z,26272
2019-04-04T06:59:58.438Z,26880
2019-04-04T07:00:57.937Z,29024
2019-04-04T07:01:59.148Z,31072
2019-04-04T07:03:00.729Z,31456
2019-04-04T07:04:02.005Z,31584
2019-04-04T07:04:57.856Z,31744
2019-04-04T07:05:57.878Z,31648
2019-04-04T07:06:59.059Z,31616
2019-04-04T07:07:57.855Z,31680
2019-04-04T07:08:57.855Z,30528
2019-04-04T07:09:58.170Z,30688
2019-04-04T07:11:22.654Z,32928
2019-04-04T07:11:57.867Z,33440
2019-04-04T07:13:27.834Z,35168
2019-04-04T07:14:01.266Z,35360
2019-04-04T07:14:57.911Z,34208
2019-04-04T07:16:13.362Z,31904
2019-04-04T07:16:58.113Z,32288
2019-04-04T07:17:57.873Z,34432
2019-04-04T07:18:57.913Z,35200
2019-04-04T07:19:57.896Z,37504
2019-04-04T07:20:57.913Z,40352
2019-04-04T07:21:59.011Z,38752
2019-04-04T07:23:00.603Z,39200
2019-04-04T07:24:01.570Z,42656
2019-04-04T07:25:00.829Z,43168
2019-04-04T07:26:00.640Z,38016
2019-04-04T07:26:57.935Z,36864
2019-04-04T07:27:57.991Z,47104
2019-04-04T07:29:01.095Z,56768
2019-04-04T07:30:01.487Z,54496
2019-04-04T07:31:01.578Z,52864
2019-04-04T07:31:57.945Z,57920
2019-04-04T07:32:58.192Z,64320
2019-04-04T07:33:57.934Z,64800
2019-04-04T07:34:57.734Z,56832
2019-04-04T07:35:57.956Z,50176
2019-04-04T07:36:58.839Z,51328
2019-04-04T07:38:02.349Z,59744
2019-04-04T07:38:58.155Z,51584
2019-04-04T07:39:58.000Z,59712
2019-04-04T07:40:58.008Z,61984
2019-04-04T07:41:57.985Z,59584
2019-04-04T07:42:58.008Z,62752
2019-04-04T07:44:00.982Z,59392
2019-04-04T07:44:59.782Z,53856
2019-04-04T07:46:17.641Z,47424
2019-04-04T07:46:58.024Z,48704
2019-04-04T07:47:59.328Z,36288
2019-04-04T07:48:59.377Z,53216
2019-04-04T07:50:00.139Z,41504
2019-04-04T07:51:01.520Z,37600
2019-04-04T07:51:59.981Z,39712
2019-04-04T07:52:58.087Z,49472
2019-04-04T07:53:58.097Z,46720
2019-04-04T07:54:58.064Z,36576
2019-04-04T07:55:58.119Z,34944
2019-04-04T07:56:58.098Z,37280
2019-04-04T07:57:58.752Z,36192
2019-04-04T07:58:57.864Z,45280
2019-04-04T07:59:58.136Z,38720
2019-04-04T08:00:58.125Z,36704
2019-04-04T08:01:58.804Z,37760
2019-04-04T08:03:58.120Z,30560
2019-04-04T08:04:58.148Z,30208
2019-04-04T08:05:58.134Z,45504
2019-04-04T08:06:58.182Z,37280
2019-04-04T08:07:58.144Z,33664
2019-04-04T08:08:58.174Z,27424
2019-04-04T08:09:58.179Z,37408
2019-04-04T08:10:58.166Z,34880
2019-04-04T08:11:58.202Z,40640
2019-04-04T08:12:58.190Z,43648
2019-04-04T08:13:58.197Z,47488
2019-04-04T08:14:57.935Z,51808
2019-04-04T08:15:58.195Z,52768
2019-04-04T08:16:58.211Z,53856
2019-04-04T08:17:58.215Z,49568
2019-04-04T08:18:58.243Z,45184
2019-04-04T08:20:07.012Z,32032
2019-04-04T08:20:58.224Z,15648
2019-04-04T08:21:58.256Z,10272
2019-04-04T08:22:58.204Z,10076
2019-04-04T08:23:58.256Z,9924
2019-04-04T08:24:58.209Z,9800
2019-04-04T08:25:58.248Z,9680
2019-04-04T08:26:58.230Z,9576
2019-04-04T08:27:58.254Z,9476
2019-04-04T08:28:58.236Z,9376
2019-04-04T08:29:58.242Z,9268
2019-04-04T08:30:58.207Z,9180
2019-04-04T08:31:58.220Z,9096
2019-04-04T08:32:58.269Z,9008
2019-04-04T08:33:58.241Z,8912
2019-04-04T08:34:58.250Z,8816
2019-04-04T08:36:10.000Z,8732
2019-04-04T08:36:58.245Z,8676
2019-04-04T08:37:58.279Z,8616
2019-04-04T08:38:58.253Z,8556
2019-04-04T08:39:58.208Z,8508
2019-04-04T08:40:58.249Z,8480
2019-04-04T08:41:59.439Z,8420
2019-04-04T08:42:58.238Z,8368
2019-04-04T08:43:58.190Z,8324
2019-04-04T08:44:58.204Z,8292
2019-04-04T08:45:58.200Z,8264
2019-04-04T08:47:00.431Z,8220
2019-04-04T08:47:58.265Z,8168
2019-04-04T08:48:58.234Z,8120
2019-04-04T08:49:58.213Z,8092
2019-04-04T08:50:58.216Z,8084
2019-04-04T08:51:58.165Z,8084
2019-04-04T08:52:58.192Z,8072
2019-04-04T08:53:58.158Z,8056
2019-04-04T08:54:58.200Z,8020
2019-04-04T08:55:58.154Z,7996
2019-04-04T08:56:58.189Z,7968
2019-04-04T08:57:58.155Z,7948
2019-04-04T08:58:58.772Z,7932
2019-04-04T08:59:58.135Z,7904
2019-04-04T09:00:58.153Z,7880
2019-04-04T09:01:58.143Z,7860
2019-04-04T09:02:58.246Z,7836
2019-04-04T09:03:58.165Z,7824
2019-04-04T09:05:10.760Z,7800
2019-04-04T09:05:58.126Z,7780
2019-04-04T09:06:57.979Z,7744
2019-04-04T09:07:58.221Z,7692
2019-04-04T09:08:58.118Z,7652
2019-04-04T09:09:58.526Z,7608
2019-04-04T09:10:58.109Z,7420
2019-04-04T09:11:58.193Z,7552
2019-04-04T09:12:58.097Z,7548
2019-04-04T09:13:58.088Z,7548
2019-04-04T09:14:58.127Z,7544
2019-04-04T09:15:58.074Z,7520
2019-04-04T09:16:58.081Z,7496
2019-04-04T09:17:58.096Z,7480
2019-04-04T09:18:58.101Z,7468
2019-04-04T09:19:58.093Z,7480
2019-04-04T09:20:58.067Z,7508
2019-04-04T09:21:58.055Z,7512
2019-04-04T09:22:58.045Z,7516
2019-04-04T09:24:00.386Z,7504
2019-04-04T09:24:58.052Z,7356
2019-04-04T09:26:10.076Z,7388
2019-04-04T09:26:58.018Z,7440
2019-04-04T09:27:58.064Z,7464
2019-04-04T09:28:58.010Z,7440
2019-04-04T09:29:58.039Z,7416
2019-04-04T09:30:58.002Z,7420
2019-04-04T09:31:58.046Z,7404
2019-04-04T09:32:58.022Z,7424
2019-04-04T09:33:58.017Z,7452
2019-04-04T09:34:58.069Z,7368
2019-04-04T09:35:57.986Z,7232
2019-04-04T09:36:58.002Z,7124
2019-04-04T09:37:58.004Z,7136
2019-04-04T09:38:57.993Z,7208
2019-04-04T09:39:58.005Z,7244
2019-04-04T09:40:57.976Z,7272
2019-04-04T09:41:57.749Z,7312
2019-04-04T09:42:57.945Z,7444
2019-04-04T09:43:57.990Z,7408
2019-04-04T09:44:57.944Z,7320
2019-04-04T09:45:57.966Z,7576
2019-04-04T09:47:09.912Z,7868
2019-04-04T09:47:57.972Z,7980
2019-04-04T09:48:57.955Z,8080
2019-04-04T09:49:57.950Z,8136
2019-04-04T09:50:59.185Z,8152
2019-04-04T09:51:57.949Z,8164
2019-04-04T09:52:57.919Z,8176
2019-04-04T09:54:00.587Z,8156
2019-04-04T09:54:57.892Z,8128
2019-04-04T09:55:57.931Z,8064
2019-04-04T09:56:57.890Z,7912
2019-04-04T09:57:57.925Z,7752
2019-04-04T09:58:59.742Z,7620
2019-04-04T09:59:57.929Z,7380
2019-04-04T10:00:57.873Z,7004
2019-04-04T10:01:57.881Z,6860
2019-04-04T10:02:57.871Z,6944
2019-04-04T10:03:57.932Z,7068
2019-04-04T10:04:57.611Z,7096
2019-04-04T10:05:58.431Z,7088
2019-04-04T10:06:57.874Z,7108
2019-04-04T10:07:57.879Z,7160
2019-04-04T10:08:57.834Z,7200
2019-04-04T10:09:57.857Z,7224
2019-04-04T10:10:57.822Z,7252
2019-04-04T10:11:57.871Z,7256
2019-04-04T10:12:57.820Z,7228
2019-04-04T10:13:57.858Z,7292
2019-04-04T10:14:57.815Z,7348
2019-04-04T10:15:57.847Z,7324
2019-04-04T10:16:57.811Z,7064
2019-04-04T10:17:57.826Z,6720
2019-04-04T10:18:57.840Z,6608
2019-04-04T10:19:57.834Z,7324
2019-04-04T10:21:10.768Z,7620
2019-04-04T10:21:57.810Z,7904
2019-04-04T10:22:57.802Z,8108
2019-04-04T10:23:57.767Z,8192
2019-04-04T10:24:57.806Z,8224
2019-04-04T10:25:57.800Z,8240
2019-04-04T10:26:57.799Z,8264
2019-04-04T10:27:57.752Z,8252
2019-04-04T10:28:58.378Z,8200
2019-04-04T10:29:57.759Z,8204
2019-04-04T10:30:57.768Z,8104
2019-04-04T10:31:57.781Z,8064
2019-04-04T10:32:57.732Z,8032
2019-04-04T10:33:57.767Z,7944
2019-04-04T10:34:57.732Z,7788
2019-04-04T10:35:57.760Z,7648
2019-04-04T10:36:57.758Z,7512
2019-04-04T10:37:57.724Z,7364
2019-04-04T10:38:57.721Z,7220
2019-04-04T10:39:57.706Z,7096
2019-04-04T10:40:57.735Z,7024
2019-04-04T10:41:57.746Z,6940
2019-04-04T10:42:57.739Z,6848
2019-04-04T10:43:57.689Z,6740
2019-04-04T10:44:57.727Z,6624
2019-04-04T10:45:57.678Z,6572
2019-04-04T10:46:57.700Z,6520
2019-04-04T10:47:57.669Z,6488
2019-04-04T10:48:57.713Z,6436
2019-04-04T10:49:58.555Z,6336
2019-04-04T10:50:57.686Z,6216
2019-04-04T10:51:57.651Z,6084
2019-04-04T10:52:57.651Z,6004
2019-04-04T10:53:57.680Z,5936
2019-04-04T10:54:57.673Z,5836
2019-04-04T10:55:57.639Z,5736
2019-04-04T10:56:57.687Z,5676
2019-04-04T10:57:57.646Z,5600
2019-04-04T10:58:57.672Z,5532
2019-04-04T10:59:59.350Z,5492
2019-04-04T11:00:57.671Z,5596
2019-04-04T11:02:00.671Z,5684
2019-04-04T11:02:57.642Z,5752
2019-04-04T11:03:57.608Z,5888
2019-04-04T11:04:57.646Z,6056
2019-04-04T11:05:57.624Z,6188
2019-04-04T11:06:57.624Z,6316
2019-04-04T11:07:59.281Z,6436
2019-04-04T11:08:57.590Z,6544
2019-04-04T11:09:57.607Z,6612
2019-04-04T11:10:58.969Z,6580
2019-04-04T11:11:57.613Z,6544
2019-04-04T11:12:57.580Z,6672
2019-04-04T11:13:57.591Z,6792
2019-04-04T11:14:57.559Z,6848
2019-04-04T11:15:57.602Z,6932
2019-04-04T11:16:57.557Z,7036
2019-04-04T11:17:57.596Z,7084
2019-04-04T11:18:57.345Z,7068
2019-04-04T11:19:57.592Z,7040
2019-04-04T11:20:57.541Z,6992
2019-04-04T11:21:57.558Z,6932
2019-04-04T11:22:57.563Z,6892
2019-04-04T11:23:57.526Z,6872
2019-04-04T11:24:57.532Z,6908
2019-04-04T11:25:57.549Z,6948
2019-04-04T11:26:57.587Z,7000
2019-04-04T11:27:57.568Z,7052
2019-04-04T11:28:57.510Z,7076
2019-04-04T11:29:57.524Z,7064
2019-04-04T11:30:57.499Z,7008
2019-04-04T11:31:57.289Z,6912
2019-04-04T11:32:57.499Z,6788
2019-04-04T11:33:57.528Z,6768
2019-04-04T11:35:00.635Z,6708
2019-04-04T11:35:57.530Z,6648
2019-04-04T11:36:57.233Z,6600
2019-04-04T11:37:57.485Z,6536
2019-04-04T11:38:57.489Z,6448
2019-04-04T11:40:02.209Z,6376
2019-04-04T11:40:57.502Z,6308
2019-04-04T11:41:57.468Z,6192
2019-04-04T11:42:57.462Z,6104
2019-04-04T11:43:57.448Z,5992
2019-04-04T11:44:57.495Z,5944
2019-04-04T11:45:57.455Z,5848
2019-04-04T11:46:57.449Z,5804
2019-04-04T11:47:57.477Z,5760
2019-04-04T11:48:57.192Z,5768
2019-04-04T11:49:57.471Z,5824
2019-04-04T11:50:57.449Z,5860
2019-04-04T11:51:57.467Z,5884
2019-04-04T11:52:57.427Z,5900
2019-04-04T11:53:57.427Z,5768
2019-04-04T11:54:57.423Z,5804
2019-04-04T11:55:57.443Z,5856
2019-04-04T11:56:57.440Z,5820
2019-04-04T11:57:57.415Z,5712
2019-04-04T11:58:57.414Z,5596
2019-04-04T11:59:57.395Z,5436
2019-04-04T12:00:57.420Z,5328
2019-04-04T12:01:57.396Z,5440
2019-04-04T12:02:57.448Z,5520
2019-04-04T12:03:57.381Z,5512
2019-04-04T12:05:00.289Z,5372
2019-04-04T12:05:57.132Z,5288
2019-04-04T12:06:57.390Z,5220
2019-04-04T12:07:57.379Z,5284
2019-04-04T12:08:57.423Z,5536
2019-04-04T12:10:09.499Z,5868
2019-04-04T12:10:57.399Z,6032
2019-04-04T12:11:57.342Z,6148
2019-04-04T12:12:58.649Z,6264
2019-04-04T12:13:57.808Z,6364
2019-04-04T12:14:57.345Z,6400
2019-04-04T12:15:57.330Z,6412
2019-04-04T12:16:57.116Z,6552
2019-04-04T12:17:57.344Z,6844
2019-04-04T12:18:57.372Z,7220
2019-04-04T12:19:57.315Z,7544
2019-04-04T12:20:57.355Z,7856
2019-04-04T12:21:57.308Z,8216
2019-04-04T12:22:57.353Z,8560
2019-04-04T12:23:58.719Z,8920
2019-04-04T12:24:57.348Z,9256
2019-04-04T12:25:57.340Z,9544
2019-04-04T12:26:57.337Z,9712
2019-04-04T12:27:57.291Z,9732
2019-04-04T12:28:57.289Z,9660
2019-04-04T12:29:57.315Z,9536
2019-04-04T12:30:57.310Z,9412
2019-04-04T12:31:57.320Z,9236
2019-04-04T12:32:57.279Z,9108
2019-04-04T12:33:57.317Z,8976
2019-04-04T12:34:57.270Z,8888
2019-04-04T12:35:59.362Z,8832
2019-04-04T12:36:57.262Z,8804
2019-04-04T12:37:57.296Z,8860
2019-04-04T12:38:57.285Z,8964
2019-04-04T12:39:57.250Z,9028
2019-04-04T12:40:57.304Z,9060
2019-04-04T12:41:57.270Z,9048
2019-04-04T12:42:57.267Z,9024
2019-04-04T12:43:57.280Z,8996
2019-04-04T12:44:57.237Z,8972
2019-04-04T12:45:57.613Z,8916
2019-04-04T12:46:57.409Z,8832
2019-04-04T12:47:57.272Z,8736
2019-04-04T12:48:57.234Z,8616
2019-04-04T12:49:57.254Z,8472
2019-04-04T12:50:57.227Z,8316
2019-04-04T12:51:57.258Z,8168
2019-04-04T12:52:57.213Z,8004
2019-04-04T12:53:57.322Z,7860
2019-04-04T12:54:57.220Z,7740
2019-04-04T12:55:59.082Z,7620
2019-04-04T12:56:57.207Z,7504
2019-04-04T12:57:57.226Z,7424
2019-04-04T12:58:57.208Z,7356
2019-04-04T12:59:57.233Z,7272
2019-04-04T13:00:57.230Z,7188
2019-04-04T13:01:57.224Z,7104
2019-04-04T13:02:57.210Z,7004
2019-04-04T13:03:57.225Z,6908
2019-04-04T13:04:57.181Z,6784
2019-04-04T13:05:57.261Z,6672
2019-04-04T13:06:57.170Z,6564
2019-04-04T13:07:57.228Z,6448
2019-04-04T13:08:57.176Z,6348
2019-04-04T13:09:57.209Z,6256
2019-04-04T13:10:57.173Z,6160
2019-04-04T13:11:57.205Z,6076
2019-04-04T13:12:57.157Z,5988
2019-04-04T13:13:57.175Z,5928
2019-04-04T13:14:57.166Z,5872
2019-04-04T13:15:57.198Z,5820
2019-04-04T13:16:57.162Z,5764
2019-04-04T13:17:57.170Z,5708
2019-04-04T13:18:57.174Z,5644
2019-04-04T13:19:57.183Z,5592
2019-04-04T13:20:57.143Z,5540
2019-04-04T13:21:57.222Z,5488
2019-04-04T13:22:57.137Z,5440
2019-04-04T13:23:57.175Z,5404
2019-04-04T13:24:57.136Z,5368
2019-04-04T13:25:57.241Z,5340
2019-04-04T13:26:57.136Z,5320
2019-04-04T13:27:57.171Z,5296
2019-04-04T13:28:56.877Z,5288
2019-04-04T13:29:57.144Z,5284
2019-04-04T13:30:57.138Z,5276
2019-04-04T13:31:57.099Z,5276
2019-04-04T13:32:57.112Z,5252
2019-04-04T13:33:57.131Z,5236
2019-04-04T13:35:09.887Z,5208
2019-04-04T13:35:56.894Z,5188
2019-04-04T13:36:57.090Z,5160
2019-04-04T13:37:57.111Z,5136
2019-04-04T13:38:59.890Z,5096
2019-04-04T13:39:57.129Z,5068